الصفحة الرئيسية
METAR-TAF:

METAR-TAF

مطار :

مطار عمان المدني

عمان, الأردن

دائرة عرض: 31-59N, خط طول: 035-59E, ارتفاع: 767 متر

مراقبة الطقس الحالي

تاريخ ووقت الإصدار 25 دقيقة قبل الساعة 08:00UTC
رياح هادئة
درجة الحرارة 31°درجة مئوية
الرطوبة 17%
ضغط 1019 hPa
الرؤية: 5000 متر
العجاج

METAR: OJAM 220800Z 00000KT 5000 HZ NSC 31/03 Q1019 NOSIG

زمن: 11:25 (08:25 UTC)

توقعات

تاريخ ووقت الإصدار 3ساعات و 35 دقيقة قبل الساعة 04:50UTC
التوقعات صالحة من22 الساعة 06 UTC إلى 23 الساعة 12 UTC
ريح 2 عقدةمن اتجاهات متغيرة
الرؤية: 3000 متر
العجاج
أصبح
من 22 الساعة 08 UTC إلى 22 الساعة 10 UTC
الرؤية: 5000 متر
مؤقت
من 22 الساعة 12 UTC إلى 22 الساعة 16 UTC
ريح 14 عقدة من الغرب/الشمال الغربي
الرؤية: 4000 متر
العجاج

TAF: OJAM 220450Z 2206/2312 VRB02KT 3000 HZ NSC BECMG 2208/2210 5000 TEMPO 2212/2216 29014KT 4000 HZ

أرصاد الطقس والتوقعات من أكثر من 4000 مطار (تقارير الطقس للمطار METAR والتنبؤ بالطقس بالمطارTAF).

المحطات المتاحة هي النقط الصفراء والحمراء على الخريطة.

حرك المؤشر فوق النقطة لمعرفة اسم المحطة.

ثم انقر لمعرفة أرصاد وتوقعات الطقس.

لتغيير الخارطة: اضغط على الأزرار الخضراء مع رمز الصليب الأسود للتكبير. على الزر الأخضر مع شرطة للتصغير، أو على الأسهم الخضراء للخرائط المجاورة.


METAR-TAF: